OIIP METAR and TAF | Updated Today

OIIP METAR

Payam International Airport

Observation time: 18 min. ago

OIIP 010700Z 30017KT 8000 NSC 23/04 Q1020 A3013

Need help? Read our tutorial on how to read METARs or read the parsed version below.

Payam International Airport (OIIP) METAR

  • Weather conditions on Sat, 01 Oct 2022 07:00:00 +0000 (18 min. ago):
  • Present conditions: Dry
  • Clouds: No significant clouds are observed
  • Visibility: 8000 meters
  • Wind: 300 degrees at 17 knots
  • Temperature: 23 celsius
  • Dew point: 4 celsius
  • Pressure: 1020 millibars
  • Remarks: None


Useful to know...

OIIP TAF

Payam International Airport

TAF OIIP 010510Z 0106/0115 30008KT 5000 HZ NSC TEMPO 0106/0112 30018KT TEMPO 0112/0115 26014KT
Observation time: 2:08 hr. ago
Need help? Read our tutorial on how to read TAFs or read the parsed version below.

Parsed version of TAF for Payam International Airport (OIIP)

  • From 01 October at 06:00 UTC, to day 01 of the month at 15:00 UTC
  • Clouds: No significant clouds are observed
  • Visibility: 5000 meters
  • Wind: 300 degrees at 8
  • Other: Haze
  • Expected to arise temporarily, from 01 October at 06:00 UTC, to day 01 of the month at 12:00 UTC
  • Wind: 300 degrees at 18
  • Expected to arise temporarily, from 01 October at 12:00 UTC, to day 01 of the month at 15:00 UTC
  • Wind: 260 degrees at 14